Time;durP1;ratioP1;P1;durP2;ratioP2;P2;SDS_P1;SDS_P2;PMS_P1;PMS_P2;Temp;Humidity;BMP_temperature;BMP_pressure;BME280_temperature;BME280_humidity;BME280_pressure;Samples;Min_cycle;Max_cycle;Signal;HPM_P1;HPM_P2
2023/04/27 00:00:22;;;;;;;13.30;3.92;;;13.90;92.20;;;;;;4098593;29;20047;-51
2023/04/27 00:02:26;;;;;;;13.68;4.20;;;13.90;92.50;;;;;;4115950;28;20058;-55
2023/04/27 00:04:28;;;;;;;13.98;3.90;;;13.80;92.50;;;;;;4115745;28;20051;-55
2023/04/27 00:06:31;;;;;;;12.50;3.90;;;13.80;92.60;;;;;;4115071;28;20051;-55
2023/04/27 00:08:34;;;;;;;9.68;4.00;;;13.80;92.70;;;;;;4115495;28;20050;-55
2023/04/27 00:10:36;;;;;;;10.45;4.43;;;13.80;92.90;;;;;;4115695;28;20084;-53
2023/04/27 00:12:38;;;;;;;7.28;4.10;;;13.80;93.00;;;;;;4115850;28;20130;-55
2023/04/27 00:14:40;;;;;;;8.68;3.83;;;13.80;93.00;;;;;;4115078;28;20484;-54
2023/04/27 00:16:42;;;;;;;11.77;5.00;;;13.80;93.00;;;;;;4115444;28;20053;-55
2023/04/27 00:18:46;;;;;;;14.48;5.93;;;13.80;93.10;;;;;;4115802;28;20539;-55
2023/04/27 00:20:48;;;;;;;13.32;6.50;;;13.80;93.20;;;;;;4115476;28;20059;-55
2023/04/27 00:22:50;;;;;;;10.23;6.40;;;13.80;93.20;;;;;;4115530;28;20074;-54
2023/04/27 00:24:52;;;;;;;13.00;6.93;;;13.80;93.30;;;;;;4114607;28;20050;-54
2023/04/27 00:26:54;;;;;;;12.88;8.13;;;13.80;93.50;;;;;;4115574;28;20050;-55
2023/04/27 00:28:56;;;;;;;12.90;7.57;;;13.80;93.70;;;;;;4115608;28;20081;-55
2023/04/27 00:31:02;;;;;;;13.57;8.13;;;13.80;93.70;;;;;;4114653;28;20047;-54
2023/04/27 00:33:04;;;;;;;15.00;7.53;;;13.80;93.70;;;;;;4115509;28;20062;-55
2023/04/27 00:35:09;;;;;;;18.30;9.60;;;13.80;93.90;;;;;;4115098;28;20046;-54
2023/04/27 00:37:11;;;;;;;14.07;7.38;;;13.70;93.90;;;;;;4115156;28;20066;-55
2023/04/27 00:39:13;;;;;;;16.35;7.90;;;13.70;93.80;;;;;;4115516;28;20046;-53
2023/04/27 00:41:16;;;;;;;19.48;10.20;;;13.70;93.70;;;;;;4116064;28;20078;-57
2023/04/27 00:43:18;;;;;;;16.42;10.02;;;13.70;94.00;;;;;;4116151;28;20055;-51
2023/04/27 00:45:20;;;;;;;13.98;8.60;;;13.70;94.20;;;;;;4114629;28;20072;-52
2023/04/27 00:47:22;;;;;;;12.15;8.13;;;13.70;94.20;;;;;;4115354;28;20141;-54
2023/04/27 00:49:26;;;;;;;18.42;8.70;;;13.70;94.20;;;;;;4115728;28;20126;-52
2023/04/27 00:51:30;;;;;;;19.83;8.43;;;13.70;94.30;;;;;;4115268;28;20129;-52
2023/04/27 00:53:34;;;;;;;17.13;8.77;;;13.70;94.20;;;;;;4115424;28;20047;-53
2023/04/27 00:55:37;;;;;;;14.57;8.32;;;13.70;94.10;;;;;;4114031;28;20543;-52
2023/04/27 00:57:39;;;;;;;19.60;9.18;;;13.60;94.60;;;;;;4115510;28;20086;-51
2023/04/27 00:59:41;;;;;;;20.45;9.35;;;13.60;94.40;;;;;;4115438;28;20050;-54
2023/04/27 01:01:43;;;;;;;17.67;8.60;;;13.50;94.40;;;;;;4115189;28;20050;-54
2023/04/27 01:03:45;;;;;;;13.90;8.57;;;13.60;94.50;;;;;;4114871;28;20051;-53
2023/04/27 01:05:48;;;;;;;14.05;7.85;;;13.60;94.40;;;;;;4113677;28;20049;-54
2023/04/27 01:07:51;;;;;;;11.30;7.40;;;13.50;94.30;;;;;;4115296;28;20398;-54
2023/04/27 01:09:53;;;;;;;11.85;6.78;;;13.50;94.30;;;;;;4115120;28;20054;-51
2023/04/27 01:11:57;;;;;;;13.32;6.95;;;13.60;94.20;;;;;;4115069;28;20051;-52
2023/04/27 01:14:03;;;;;;;15.48;6.97;;;13.50;94.00;;;;;;4115281;28;20057;-52
2023/04/27 01:16:05;;;;;;;13.23;6.63;;;13.50;93.90;;;;;;4114225;28;20058;-52
2023/04/27 01:18:08;;;;;;;8.48;5.43;;;13.50;93.80;;;;;;4115054;28;20047;-53
2023/04/27 01:20:11;;;;;;;19.20;6.80;;;13.50;93.90;;;;;;4114616;28;20051;-54
2023/04/27 01:22:14;;;;;;;15.50;5.60;;;13.50;94.00;;;;;;4114974;28;20063;-51
2023/04/27 01:24:17;;;;;;;11.85;4.85;;;13.50;94.00;;;;;;4115135;28;20074;-59
2023/04/27 01:26:20;;;;;;;8.43;5.28;;;13.40;94.10;;;;;;4114264;28;20047;-54
2023/04/27 01:28:22;;;;;;;13.00;6.03;;;13.40;94.00;;;;;;4115052;28;20047;-57
2023/04/27 01:30:24;;;;;;;10.32;5.05;;;13.40;94.00;;;;;;4115073;28;20101;-53
2023/04/27 01:32:26;;;;;;;8.15;5.45;;;13.40;94.00;;;;;;4115856;28;20054;-55
2023/04/27 01:34:28;;;;;;;12.48;5.63;;;13.50;94.00;;;;;;4115692;28;20469;-51
2023/04/27 01:36:31;;;;;;;11.52;4.85;;;13.50;93.80;;;;;;4114395;28;20051;-54
2023/04/27 01:38:33;;;;;;;9.15;4.53;;;13.30;93.80;;;;;;4115223;28;20047;-58
2023/04/27 01:40:37;;;;;;;10.00;4.90;;;13.30;94.00;;;;;;4098984;29;20082;-52
2023/04/27 01:42:39;;;;;;;12.52;5.22;;;13.40;93.80;;;;;;4116653;28;20146;-58
2023/04/27 01:44:41;;;;;;;11.65;4.60;;;13.30;93.80;;;;;;4118816;28;20097;-51
2023/04/27 01:46:43;;;;;;;14.35;4.95;;;13.20;93.80;;;;;;4117993;28;20130;-51
2023/04/27 01:48:45;;;;;;;13.27;4.78;;;13.20;93.70;;;;;;4117500;28;20050;-55
2023/04/27 01:50:47;;;;;;;14.48;4.85;;;13.20;93.70;;;;;;4117891;28;20352;-53
2023/04/27 01:52:49;;;;;;;12.68;4.38;;;13.10;93.80;;;;;;4117986;28;20069;-54
2023/04/27 01:54:51;;;;;;;11.27;4.68;;;13.10;93.80;;;;;;4117508;28;20477;-54
2023/04/27 01:56:57;;;;;;;8.18;4.03;;;13.10;93.90;;;;;;4118211;28;20074;-53
2023/04/27 01:58:59;;;;;;;9.23;4.93;;;13.10;93.90;;;;;;4119230;28;20155;-54
2023/04/27 02:01:01;;;;;;;13.65;4.85;;;13.10;93.90;;;;;;4119653;28;20051;-53
2023/04/27 02:03:04;;;;;;;12.05;4.47;;;13.10;93.90;;;;;;4118633;28;20121;-54
2023/04/27 02:05:07;;;;;;;12.27;4.53;;;13.10;93.90;;;;;;4100786;28;20079;-53
2023/04/27 02:07:09;;;;;;;12.60;4.70;;;13.00;93.90;;;;;;4118907;28;20159;-54
2023/04/27 02:09:12;;;;;;;8.88;4.03;;;13.10;93.90;;;;;;4118701;28;20433;-55
2023/04/27 02:11:14;;;;;;;11.20;4.68;;;13.10;93.90;;;;;;4118143;28;20093;-53
2023/04/27 02:13:18;;;;;;;7.30;3.88;;;13.10;93.90;;;;;;4118191;28;20046;-51
2023/04/27 02:15:20;;;;;;;6.82;4.13;;;13.10;93.90;;;;;;4099724;28;20089;-53
2023/04/27 02:17:22;;;;;;;11.20;3.78;;;13.10;94.00;;;;;;4117971;28;20125;-53
2023/04/27 02:19:24;;;;;;;8.95;4.75;;;13.00;94.00;;;;;;4117459;28;20050;-54
2023/04/27 02:21:27;;;;;;;14.35;8.00;;;13.00;94.10;;;;;;4100210;28;20059;-53
2023/04/27 02:23:29;;;;;;;14.48;9.98;;;13.00;94.10;;;;;;4117371;28;20047;-53
2023/04/27 02:25:31;;;;;;;17.02;11.40;;;12.90;94.00;;;;;;4117069;28;20047;-54
2023/04/27 02:27:36;;;;;;;19.92;12.90;;;12.90;94.30;;;;;;4117908;28;20050;-53
2023/04/27 02:29:40;;;;;;;19.92;11.82;;;12.90;94.20;;;;;;4117775;28;20054;-53
2023/04/27 02:31:42;;;;;;;21.60;11.57;;;12.90;94.30;;;;;;4117615;28;20042;-53
2023/04/27 02:33:44;;;;;;;23.08;12.70;;;12.90;94.30;;;;;;4117162;28;20141;-52
2023/04/27 02:35:46;;;;;;;24.65;14.73;;;13.00;94.20;;;;;;4116289;28;20094;-53
2023/04/27 02:37:48;;;;;;;26.88;17.92;;;13.10;94.10;;;;;;4117320;28;20058;-54
2023/04/27 02:39:50;;;;;;;29.95;17.33;;;13.00;94.00;;;;;;4117698;28;20092;-54
2023/04/27 02:41:52;;;;;;;27.42;17.50;;;12.90;94.10;;;;;;4117360;28;20261;-52
2023/04/27 02:43:54;;;;;;;31.15;19.15;;;12.90;94.20;;;;;;4117463;28;20058;-54
2023/04/27 02:46:01;;;;;;;31.05;18.55;;;12.90;94.10;;;;;;4116025;28;20062;-53
2023/04/27 02:48:03;;;;;;;26.25;19.25;;;13.00;94.00;;;;;;4116984;28;20054;-51
2023/04/27 02:50:07;;;;;;;25.85;18.60;;;13.00;94.00;;;;;;4117182;28;20410;-58
2023/04/27 02:52:09;;;;;;;32.92;21.75;;;13.00;94.00;;;;;;4117043;28;20051;-52
2023/04/27 02:54:11;;;;;;;35.95;20.35;;;13.00;94.00;;;;;;4116319;28;20048;-54
2023/04/27 02:56:13;;;;;;;32.95;21.77;;;13.00;94.00;;;;;;4116009;28;20050;-52
2023/04/27 02:58:16;;;;;;;26.40;16.95;;;12.90;93.90;;;;;;4117079;28;20511;-53
2023/04/27 03:00:18;;;;;;;29.88;18.15;;;13.00;93.80;;;;;;4116968;28;20054;-53
2023/04/27 03:02:22;;;;;;;27.50;18.15;;;12.90;93.80;;;;;;4116617;28;20061;-53
2023/04/27 03:04:24;;;;;;;26.40;18.33;;;13.00;93.80;;;;;;4116581;28;20229;-54
2023/04/27 03:06:26;;;;;;;32.78;18.60;;;12.90;93.80;;;;;;4115525;28;20455;-54
2023/04/27 03:08:28;;;;;;;30.35;18.88;;;13.00;93.80;;;;;;4117005;28;20055;-56
2023/04/27 03:10:31;;;;;;;28.45;17.92;;;13.00;93.80;;;;;;4116831;28;20106;-52
2023/04/27 03:12:33;;;;;;;33.13;17.55;;;13.00;93.70;;;;;;4116762;28;20077;-51
2023/04/27 03:14:35;;;;;;;30.05;17.45;;;13.00;93.80;;;;;;4116635;28;20134;-52
2023/04/27 03:16:37;;;;;;;30.30;16.20;;;13.00;93.90;;;;;;4115182;28;20057;-52
2023/04/27 03:18:40;;;;;;;25.60;14.45;;;13.10;93.90;;;;;;4116679;28;20057;-53
2023/04/27 03:20:42;;;;;;;26.55;13.00;;;13.00;93.90;;;;;;4116435;28;20070;-52
2023/04/27 03:22:44;;;;;;;23.35;12.93;;;12.90;94.00;;;;;;4116462;28;20130;-55
2023/04/27 03:24:46;;;;;;;22.30;12.02;;;12.90;94.00;;;;;;4116430;28;20449;-55
2023/04/27 03:26:50;;;;;;;22.83;12.13;;;12.90;94.10;;;;;;4099363;29;20397;-54
2023/04/27 03:28:52;;;;;;;21.13;12.02;;;12.90;94.10;;;;;;4099191;29;20079;-50
2023/04/27 03:30:54;;;;;;;27.48;12.40;;;12.90;94.20;;;;;;4083151;29;20082;-52
2023/04/27 03:32:56;;;;;;;19.38;11.48;;;12.90;94.20;;;;;;4110714;28;20053;-52
2023/04/27 03:35:00;;;;;;;20.33;10.38;;;13.00;94.20;;;;;;4099077;28;20551;-53
2023/04/27 03:37:01;;;;;;;21.98;10.50;;;13.00;94.20;;;;;;4115094;28;20094;-52
2023/04/27 03:39:04;;;;;;;18.45;9.98;;;12.90;94.10;;;;;;4116373;28;20046;-51
2023/04/27 03:41:06;;;;;;;21.73;10.30;;;12.90;94.30;;;;;;4116379;28;20058;-53
2023/04/27 03:43:10;;;;;;;17.88;8.70;;;12.90;94.40;;;;;;4116366;28;20113;-52
2023/04/27 03:45:17;;;;;;;17.77;9.38;;;12.80;94.60;;;;;;4115606;28;20053;-52
2023/04/27 03:47:19;;;;;;;14.88;9.23;;;12.90;94.50;;;;;;4115983;28;20047;-50
2023/04/27 03:49:21;;;;;;;15.30;9.07;;;12.80;94.50;;;;;;4115937;28;20077;-54
2023/04/27 03:51:25;;;;;;;17.80;8.93;;;12.80;94.50;;;;;;4116013;28;20043;-54
2023/04/27 03:53:27;;;;;;;14.77;8.32;;;12.80;94.60;;;;;;4116511;28;20106;-52
2023/04/27 03:55:30;;;;;;;17.23;8.10;;;12.80;94.70;;;;;;4115385;28;20047;-52
2023/04/27 03:57:32;;;;;;;16.85;7.25;;;12.80;94.60;;;;;;4116160;28;20080;-52
2023/04/27 03:59:34;;;;;;;11.90;6.43;;;12.80;94.80;;;;;;4115469;28;20066;-53
2023/04/27 04:01:38;;;;;;;14.93;7.93;;;12.80;94.80;;;;;;4115891;28;20134;-53
2023/04/27 04:03:40;;;;;;;16.08;7.22;;;12.70;94.80;;;;;;4115913;28;20046;-52
2023/04/27 04:05:45;;;;;;;14.30;7.25;;;12.70;95.00;;;;;;4114742;28;20051;-50
2023/04/27 04:07:49;;;;;;;15.52;7.05;;;12.70;94.90;;;;;;4115779;28;20057;-54
2023/04/27 04:09:51;;;;;;;19.13;6.78;;;12.70;95.00;;;;;;4115799;28;20065;-53
2023/04/27 04:11:53;;;;;;;15.30;7.38;;;12.60;95.20;;;;;;4115916;28;20059;-53
2023/04/27 04:13:55;;;;;;;15.85;6.97;;;12.50;95.20;;;;;;4115774;28;20086;-52
2023/04/27 04:16:02;;;;;;;11.68;6.90;;;12.60;95.20;;;;;;4114806;28;20078;-55
2023/04/27 04:18:06;;;;;;;14.27;7.53;;;12.70;95.20;;;;;;4115424;28;20097;-53
2023/04/27 04:20:09;;;;;;;14.52;7.60;;;12.70;95.10;;;;;;4115828;28;20058;-54
2023/04/27 04:22:11;;;;;;;16.50;8.48;;;12.70;95.10;;;;;;4115313;28;20047;-54
2023/04/27 04:24:15;;;;;;;15.70;7.50;;;12.80;95.00;;;;;;4115513;28;20518;-54
2023/04/27 04:26:17;;;;;;;13.38;7.50;;;12.90;95.00;;;;;;4114099;28;20074;-51
2023/04/27 04:28:19;;;;;;;17.58;7.78;;;12.80;95.20;;;;;;4115410;28;20411;-54
2023/04/27 04:30:22;;;;;;;15.77;8.30;;;12.70;95.20;;;;;;4115607;28;20059;-53
2023/04/27 04:32:27;;;;;;;16.50;10.00;;;12.70;95.30;;;;;;4115366;28;20129;-53
2023/04/27 04:34:29;;;;;;;19.77;10.98;;;12.70;95.50;;;;;;4115603;28;20062;-55
2023/04/27 04:36:31;;;;;;;22.42;13.15;;;12.60;95.50;;;;;;4114473;28;20046;-53
2023/04/27 04:38:33;;;;;;;22.50;13.05;;;12.70;95.40;;;;;;4115584;28;20518;-52
2023/04/27 04:40:37;;;;;;;22.17;13.73;;;12.70;95.40;;;;;;4115489;28;20114;-53
2023/04/27 04:42:40;;;;;;;23.13;16.38;;;12.70;95.40;;;;;;4114966;28;20047;-54
2023/04/27 04:44:42;;;;;;;25.35;17.58;;;12.80;95.50;;;;;;4115634;28;20051;-53
2023/04/27 04:46:44;;;;;;;23.70;16.52;;;12.70;95.40;;;;;;4114004;28;20097;-53
2023/04/27 04:48:46;;;;;;;33.45;18.58;;;12.80;95.40;;;;;;4115402;28;20472;-53
2023/04/27 04:50:48;;;;;;;23.77;17.10;;;12.80;95.40;;;;;;4115182;28;20047;-53
2023/04/27 04:52:50;;;;;;;24.73;17.00;;;12.70;95.50;;;;;;4115266;28;20051;-53
2023/04/27 04:54:52;;;;;;;27.60;15.98;;;12.60;95.50;;;;;;4115305;28;20484;-54
2023/04/27 04:56:57;;;;;;;24.33;14.50;;;12.60;95.50;;;;;;4113923;28;20053;-54
2023/04/27 04:58:59;;;;;;;19.40;11.73;;;12.50;95.90;;;;;;4115139;28;20512;-51
2023/04/27 05:01:02;;;;;;;16.55;11.73;;;12.50;95.70;;;;;;4115392;28;20073;-50
2023/04/27 05:03:06;;;;;;;20.23;10.68;;;12.50;95.70;;;;;;4115154;28;20142;-51
2023/04/27 05:05:09;;;;;;;19.98;10.57;;;12.50;95.70;;;;;;4115135;28;20403;-53
2023/04/27 05:07:11;;;;;;;26.58;10.60;;;12.40;95.80;;;;;;4113988;28;20051;-54
2023/04/27 05:09:16;;;;;;;27.75;9.88;;;12.40;95.90;;;;;;4115110;28;20078;-54
2023/04/27 05:11:18;;;;;;;17.02;9.35;;;12.40;95.90;;;;;;4114931;28;20099;-53
2023/04/27 05:13:23;;;;;;;19.42;9.00;;;12.40;95.80;;;;;;4114780;28;20046;-53
2023/04/27 05:15:25;;;;;;;20.48;8.98;;;12.40;95.70;;;;;;4114897;28;20050;-53
2023/04/27 05:17:27;;;;;;;18.98;8.60;;;12.50;95.60;;;;;;4115731;28;20047;-52
2023/04/27 05:19:30;;;;;;;17.95;8.23;;;12.40;95.70;;;;;;4101197;29;20079;-56
2023/04/27 05:21:32;;;;;;;18.10;8.23;;;12.50;95.80;;;;;;4118187;28;20059;-51
2023/04/27 05:23:34;;;;;;;27.67;8.18;;;12.50;95.60;;;;;;4118499;28;20055;-53
2023/04/27 05:25:40;;;;;;;19.27;7.93;;;12.60;95.60;;;;;;4117382;28;20051;-54
2023/04/27 05:27:42;;;;;;;23.67;7.47;;;12.70;95.40;;;;;;4117971;28;20054;-53
2023/04/27 05:29:45;;;;;;;24.17;7.80;;;12.60;95.50;;;;;;4117970;28;20047;-53
2023/04/27 05:31:48;;;;;;;22.15;6.72;;;12.80;95.50;;;;;;4118300;28;20129;-53
2023/04/27 05:33:50;;;;;;;28.00;6.82;;;12.70;95.10;;;;;;4118130;28;20097;-54
2023/04/27 05:35:52;;;;;;;20.10;6.65;;;12.90;95.10;;;;;;4117202;28;20264;-53
2023/04/27 05:37:55;;;;;;;17.05;6.00;;;12.90;94.80;;;;;;4117963;28;20054;-53
2023/04/27 05:39:57;;;;;;;10.57;5.63;;;13.00;94.70;;;;;;4118337;28;20109;-54
2023/04/27 05:41:59;;;;;;;19.73;6.60;;;13.00;94.50;;;;;;4117761;28;20125;-54
2023/04/27 05:44:01;;;;;;;13.23;5.60;;;12.90;94.40;;;;;;4117921;28;20046;-53
2023/04/27 05:46:04;;;;;;;15.50;6.18;;;12.90;94.50;;;;;;4117085;28;20039;-54
2023/04/27 05:48:06;;;;;;;10.82;6.07;;;12.80;94.40;;;;;;4100771;29;20051;-53
2023/04/27 05:50:10;;;;;;;11.23;6.47;;;12.80;94.40;;;;;;4118011;28;20048;-55
2023/04/27 05:52:12;;;;;;;14.35;6.18;;;12.80;94.50;;;;;;4100881;28;20099;-55
2023/04/27 05:54:16;;;;;;;13.88;5.20;;;12.80;94.50;;;;;;4118040;28;20050;-52
2023/04/27 05:56:18;;;;;;;;;;;12.80;94.60;;;;;;4117333;28;20055;-54
2023/04/27 05:58:21;;;;;;;13.48;5.10;;;12.90;94.60;;;;;;4117562;28;19936;-53
2023/04/27 06:00:23;;;;;;;14.70;5.68;;;12.90;94.50;;;;;;4100421;29;20047;-53
2023/04/27 06:02:27;;;;;;;14.93;4.82;;;13.00;94.50;;;;;;4117904;28;20134;-52
2023/04/27 06:04:31;;;;;;;16.88;5.38;;;13.20;94.60;;;;;;4117736;28;20419;-58
2023/04/27 06:06:34;;;;;;;10.60;4.70;;;13.20;94.50;;;;;;4116748;28;20047;-55
2023/04/27 06:08:38;;;;;;;11.70;5.38;;;13.20;94.30;;;;;;4117826;28;21124;-52
2023/04/27 06:10:40;;;;;;;15.18;5.18;;;13.30;94.20;;;;;;4117597;28;20043;-54
2023/04/27 06:12:42;;;;;;;15.82;5.10;;;13.40;94.40;;;;;;4117962;28;20051;-53
2023/04/27 06:14:47;;;;;;;15.45;4.93;;;13.60;94.10;;;;;;4117784;28;20054;-53
2023/04/27 06:16:49;;;;;;;12.05;4.78;;;13.70;94.00;;;;;;4116297;28;20050;-53
2023/04/27 06:18:55;;;;;;;11.30;4.28;;;13.80;93.80;;;;;;4117511;28;20046;-53
2023/04/27 06:20:59;;;;;;;11.85;4.53;;;13.90;93.70;;;;;;4100170;29;20509;-54
2023/04/27 06:23:01;;;;;;;13.82;4.90;;;13.90;93.50;;;;;;4117186;28;20138;-53
2023/04/27 06:25:03;;;;;;;8.73;4.90;;;13.90;93.50;;;;;;4117098;28;20110;-53
2023/04/27 06:27:06;;;;;;;20.38;5.03;;;14.00;92.70;;;;;;4116462;28;20077;-53
2023/04/27 06:29:08;;;;;;;13.00;5.03;;;14.00;92.30;;;;;;4116004;28;20051;-52
2023/04/27 06:31:10;;;;;;;12.60;4.65;;;13.90;92.40;;;;;;4117121;28;20047;-53
2023/04/27 06:33:12;;;;;;;14.48;5.70;;;14.10;92.40;;;;;;4117290;28;20098;-53
2023/04/27 06:35:16;;;;;;;11.40;5.65;;;14.00;92.20;;;;;;4117195;28;20098;-53
2023/04/27 06:37:18;;;;;;;10.57;4.37;;;14.10;92.20;;;;;;4116323;28;20042;-53
2023/04/27 06:39:20;;;;;;;12.00;4.93;;;14.00;92.30;;;;;;4117028;28;20053;-53
2023/04/27 06:41:23;;;;;;;13.98;5.57;;;14.10;92.10;;;;;;4117315;28;20061;-52
2023/04/27 06:43:25;;;;;;;16.48;5.40;;;14.30;91.90;;;;;;4117145;28;20047;-53
2023/04/27 06:45:27;;;;;;;10.45;5.05;;;14.40;91.40;;;;;;4117130;28;20416;-54
2023/04/27 06:47:29;;;;;;;19.42;5.75;;;14.30;91.70;;;;;;4115713;28;20047;-54
2023/04/27 06:49:32;;;;;;;13.43;4.85;;;14.40;91.30;;;;;;4117025;28;20047;-54
2023/04/27 06:51:35;;;;;;;21.00;5.72;;;14.40;91.30;;;;;;4116898;28;20070;-53
2023/04/27 06:53:37;;;;;;;14.05;5.45;;;14.50;91.30;;;;;;4116682;28;20051;-53
2023/04/27 06:55:39;;;;;;;14.48;5.00;;;14.40;91.30;;;;;;4116948;28;20457;-53
2023/04/27 06:57:45;;;;;;;9.52;4.63;;;14.40;91.50;;;;;;4115645;28;20042;-53
2023/04/27 06:59:47;;;;;;;14.40;4.53;;;14.50;91.50;;;;;;4116936;28;20472;-54
2023/04/27 07:01:50;;;;;;;13.68;4.75;;;14.60;91.20;;;;;;4116712;28;20074;-53
2023/04/27 07:03:52;;;;;;;17.48;5.03;;;14.50;91.30;;;;;;4116526;28;20508;-54
2023/04/27 07:05:56;;;;;;;15.93;4.97;;;14.50;91.00;;;;;;4116750;28;20051;-53
2023/04/27 07:07:59;;;;;;;12.93;5.43;;;14.50;90.80;;;;;;4116143;28;20551;-54
2023/04/27 07:10:08;;;;;;;13.85;4.53;;;14.60;90.80;;;;;;4116966;28;20057;-53
2023/04/27 07:12:10;;;;;;;14.68;4.90;;;14.70;90.70;;;;;;4116583;28;20047;-53
2023/04/27 07:14:12;;;;;;;17.45;5.78;;;14.80;90.40;;;;;;4117143;28;20453;-53
2023/04/27 07:16:15;;;;;;;13.15;4.80;;;14.90;90.30;;;;;;4098713;29;20047;-53
2023/04/27 07:18:17;;;;;;;15.30;5.63;;;15.00;90.60;;;;;;4116377;28;20076;-53
2023/04/27 07:20:19;;;;;;;24.23;6.63;;;15.20;90.10;;;;;;4116651;28;20077;-54
2023/04/27 07:22:21;;;;;;;24.70;5.63;;;15.40;89.80;;;;;;4115963;28;20055;-54
2023/04/27 07:24:24;;;;;;;13.18;5.00;;;15.50;87.90;;;;;;4116341;28;20049;-54
2023/04/27 07:26:26;;;;;;;18.13;5.20;;;15.60;88.40;;;;;;4115613;28;20067;-61
2023/04/27 07:28:28;;;;;;;11.02;5.40;;;15.50;88.50;;;;;;4117341;28;20519;-57
2023/04/27 07:30:33;;;;;;;18.40;5.28;;;15.60;87.60;;;;;;4117281;28;20074;-53
2023/04/27 07:32:36;;;;;;;13.02;4.90;;;15.60;87.90;;;;;;4116427;28;20047;-54
2023/04/27 07:34:39;;;;;;;11.52;4.10;;;15.50;87.40;;;;;;4116286;28;20397;-54
2023/04/27 07:36:54;;;;;;;19.25;5.15;;;15.70;87.50;;;;;;4115054;28;20054;-53
2023/04/27 07:38:57;;;;;;;19.77;5.20;;;15.90;86.80;;;;;;4116581;28;20121;-53
2023/04/27 07:41:01;;;;;;;11.45;4.07;;;16.10;86.90;;;;;;4115992;28;20054;-53
2023/04/27 07:43:04;;;;;;;9.20;4.60;;;16.40;87.30;;;;;;4116550;28;20121;-51
2023/04/27 07:45:07;;;;;;;12.10;5.30;;;16.60;85.30;;;;;;4116149;28;20061;-53
2023/04/27 07:47:09;;;;;;;22.63;5.45;;;16.70;85.40;;;;;;4115433;28;20428;-54
2023/04/27 07:49:12;;;;;;;18.70;4.97;;;16.80;85.70;;;;;;4116003;28;20051;-53
2023/04/27 07:51:16;;;;;;;14.07;4.88;;;16.90;85.90;;;;;;4115801;28;20125;-54
2023/04/27 07:53:18;;;;;;;20.05;4.70;;;17.10;84.60;;;;;;4131023;28;20480;-53
2023/04/27 07:55:21;;;;;;;14.55;5.20;;;17.30;84.40;;;;;;4098830;28;20135;-54
2023/04/27 07:57:24;;;;;;;18.75;5.40;;;17.30;83.90;;;;;;4114917;28;20074;-53
2023/04/27 07:59:28;;;;;;;15.77;4.90;;;17.40;83.80;;;;;;4115890;28;20078;-54
2023/04/27 08:01:30;;;;;;;13.43;4.70;;;17.20;82.10;;;;;;4098772;29;20134;-54
2023/04/27 08:03:32;;;;;;;15.30;4.38;;;17.20;82.30;;;;;;4104425;28;20039;-54
2023/04/27 08:05:34;;;;;;;12.60;4.75;;;17.20;83.00;;;;;;4115788;28;20074;-54
2023/04/27 08:07:37;;;;;;;22.83;5.60;;;17.30;83.30;;;;;;4114699;28;20097;-54
2023/04/27 08:09:45;;;;;;;24.08;5.25;;;17.50;83.30;;;;;;4115776;28;20057;-53
2023/04/27 08:11:48;;;;;;;19.92;4.78;;;17.40;82.40;;;;;;4098639;28;20140;-54
2023/04/27 08:13:51;;;;;;;26.23;4.80;;;17.30;81.80;;;;;;4115850;28;20138;-51
2023/04/27 08:15:57;;;;;;;21.95;4.40;;;17.40;81.20;;;;;;4115743;28;20047;-52
2023/04/27 08:17:59;;;;;;;17.77;4.75;;;17.40;82.20;;;;;;4114622;28;20528;-53
2023/04/27 08:20:01;;;;;;;18.08;5.15;;;17.40;81.90;;;;;;4115323;28;20071;-53
2023/04/27 08:22:03;;;;;;;14.30;4.43;;;17.30;81.60;;;;;;4099348;29;20064;-53
2023/04/27 08:24:06;;;;;;;11.27;4.15;;;17.30;81.20;;;;;;4099574;29;20118;-52
2023/04/27 08:26:13;;;;;;;12.10;4.18;;;17.30;81.40;;;;;;4115775;28;20069;-54
2023/04/27 08:28:15;;;;;;;11.63;4.47;;;17.30;80.80;;;;;;4115317;28;20070;-59
2023/04/27 08:30:20;;;;;;;14.32;4.18;;;17.30;80.60;;;;;;4115663;28;20131;-54
2023/04/27 08:32:22;;;;;;;18.63;5.38;;;17.40;80.40;;;;;;4115500;28;20569;-54
2023/04/27 08:34:24;;;;;;;18.80;7.10;;;17.30;79.90;;;;;;4115635;28;20381;-55
2023/04/27 08:36:27;;;;;;;14.40;4.20;;;17.20;80.70;;;;;;4114239;28;20098;-53
2023/04/27 08:38:29;;;;;;;28.45;12.88;;;17.20;80.00;;;;;;4115289;28;20080;-53
2023/04/27 08:40:31;;;;;;;17.70;7.88;;;17.40;81.10;;;;;;4115891;28;20406;-52
2023/04/27 08:42:33;;;;;;;23.05;12.65;;;17.70;82.20;;;;;;4114377;28;20087;-51
2023/04/27 08:44:38;;;;;;;16.80;6.72;;;17.80;82.60;;;;;;4115535;28;20056;-51
2023/04/27 08:46:42;;;;;;;27.45;9.88;;;17.90;79.60;;;;;;4113371;28;20138;-51
2023/04/27 08:48:46;;;;;;;34.92;17.42;;;17.90;81.50;;;;;;4115277;28;20072;-52
2023/04/27 08:50:50;;;;;;;15.32;9.25;;;18.00;81.20;;;;;;4115332;28;20050;-51
2023/04/27 08:52:52;;;;;;;16.83;6.93;;;18.00;80.50;;;;;;4110015;28;20044;-51
2023/04/27 08:54:54;;;;;;;17.52;8.65;;;18.20;81.50;;;;;;4115509;28;20057;-52
2023/04/27 08:56:57;;;;;;;33.90;19.77;;;18.00;81.30;;;;;;4114099;28;20051;-52
2023/04/27 08:59:00;;;;;;;33.65;20.48;;;18.10;81.40;;;;;;4115418;28;20097;-51
2023/04/27 09:01:05;;;;;;;33.03;18.23;;;18.30;81.30;;;;;;4115238;28;20085;-52
2023/04/27 09:03:18;;;;;;;30.77;13.68;;;18.30;80.50;;;;;;4115060;28;20067;-51
2023/04/27 09:05:21;;;;;;;15.57;6.95;;;18.30;79.40;;;;;;4100459;28;20460;-52
2023/04/27 09:07:25;;;;;;;12.57;6.28;;;18.30;80.00;;;;;;4115136;28;20054;-52
2023/04/27 09:09:29;;;;;;;13.10;5.65;;;18.10;80.20;;;;;;4115327;28;20051;-51
2023/04/27 09:11:33;;;;;;;29.83;14.02;;;18.20;79.20;;;;;;4115159;28;20059;-51
2023/04/27 09:13:36;;;;;;;30.35;13.05;;;18.10;79.10;;;;;;4115119;28;20145;-50
2023/04/27 09:15:43;;;;;;;18.98;9.50;;;18.10;79.20;;;;;;4114973;28;20143;-51
2023/04/27 09:17:53;;;;;;;19.25;8.55;;;18.00;79.20;;;;;;4113833;28;20058;-50
2023/04/27 09:20:12;;;;;;;21.48;7.90;;;18.00;81.00;;;;;;4115285;28;20054;-51
2023/04/27 09:22:14;;;;;;;27.42;13.27;;;18.00;79.10;;;;;;4111089;28;20138;-51
2023/04/27 09:24:16;;;;;;;30.65;15.38;;;18.00;79.60;;;;;;4109423;28;20066;-54
2023/04/27 09:26:23;;;;;;;32.92;17.10;;;18.00;79.20;;;;;;4109187;28;20070;-52
2023/04/27 09:28:29;;;;;;;36.05;17.88;;;18.10;79.90;;;;;;4111690;28;20412;-52
2023/04/27 09:30:31;;;;;;;34.33;19.23;;;18.20;80.50;;;;;;4112319;28;20046;-54
2023/04/27 09:32:34;;;;;;;42.78;20.80;;;18.30;79.20;;;;;;4114306;28;20471;-53
2023/04/27 09:34:42;;;;;;;59.35;26.45;;;18.10;79.40;;;;;;4114856;28;20519;-54
2023/04/27 09:36:47;;;;;;;17.48;9.02;;;18.10;79.20;;;;;;4114142;28;20228;-55
2023/04/27 09:38:51;;;;;;;21.77;6.50;;;18.30;80.00;;;;;;4114691;28;20105;-54
2023/04/27 09:40:53;;;;;;;16.55;4.40;;;18.30;80.40;;;;;;4114766;28;20058;-54
2023/04/27 09:42:57;;;;;;;8.30;2.85;;;18.40;81.20;;;;;;4114642;28;20043;-53
2023/04/27 09:45:00;;;;;;;19.25;3.83;;;18.50;80.90;;;;;;4114712;28;20051;-54
2023/04/27 09:47:02;;;;;;;7.50;3.20;;;18.60;79.60;;;;;;4096366;28;20445;-54
2023/04/27 09:49:04;;;;;;;10.45;3.45;;;18.70;78.80;;;;;;4114656;28;20047;-55
2023/04/27 09:51:07;;;;;;;7.63;3.75;;;18.70;79.30;;;;;;4114450;28;20051;-52
2023/04/27 09:53:15;;;;;;;22.25;4.28;;;18.80;78.40;;;;;;4114901;28;20074;-58
2023/04/27 09:55:21;;;;;;;12.35;4.30;;;18.90;77.80;;;;;;4114911;28;20054;-53
2023/04/27 09:57:33;;;;;;;10.85;4.10;;;18.90;78.60;;;;;;4113472;28;20043;-54
2023/04/27 10:00:00;;;;;;;9.18;3.00;;;19.10;78.60;;;;;;4114915;28;20047;-53
2023/04/27 10:02:03;;;;;;;24.95;4.35;;;19.10;78.20;;;;;;4101491;28;20050;-53
2023/04/27 10:04:43;;;;;;;17.70;7.00;;;19.20;79.20;;;;;;4110332;28;20047;-54
2023/04/27 10:06:55;;;;;;;22.58;10.02;;;19.10;79.10;;;;;;4099935;29;20055;-53
2023/04/27 10:09:04;;;;;;;21.23;10.10;;;19.00;76.80;;;;;;4118384;28;20101;-54
2023/04/27 10:11:14;;;;;;;14.18;8.18;;;19.00;78.50;;;;;;4117742;28;20151;-54
2023/04/27 10:13:21;;;;;;;11.27;4.90;;;19.10;79.50;;;;;;4117504;28;20046;-54
2023/04/27 10:15:27;;;;;;;6.07;2.72;;;19.30;80.00;;;;;;4117470;28;20045;-53
2023/04/27 10:17:31;;;;;;;9.73;3.13;;;19.40;78.60;;;;;;4115917;28;20117;-55
2023/04/27 10:19:33;;;;;;;7.95;3.10;;;19.20;77.70;;;;;;4117627;28;20047;-53
2023/04/27 10:21:35;;;;;;;8.18;2.85;;;19.10;77.40;;;;;;4117420;28;20050;-53
2023/04/27 10:23:47;;;;;;;12.88;3.10;;;19.10;78.30;;;;;;4117126;28;20102;-54
2023/04/27 10:25:51;;;;;;;12.98;3.65;;;19.30;78.30;;;;;;4117298;28;20054;-54
2023/04/27 10:27:55;;;;;;;7.90;2.67;;;19.30;78.70;;;;;;4116566;28;20046;-54
2023/04/27 10:30:08;;;;;;;5.28;2.80;;;19.40;79.40;;;;;;4100413;29;20135;-55
2023/04/27 10:32:12;;;;;;;5.35;2.63;;;19.50;78.80;;;;;;4116779;28;20081;-53